Time;durP1;ratioP1;P1;durP2;ratioP2;P2;SDS_P1;SDS_P2;PMS_P1;PMS_P2;Temp;Humidity;BMP_temperature;BMP_pressure;BME280_temperature;BME280_humidity;BME280_pressure;Samples;Min_cycle;Max_cycle;Signal;HPM_P1;HPM_P2
2022/12/27 00:02:22;;;;;;;9.15;7.87;;;;;;;0.34;79.06;100596.50;1736479;81;21513;-68
2022/12/27 00:04:49;;;;;;;11.97;9.20;;;;;;;0.34;79.02;100598.65;1736364;81;21009;-67
2022/12/27 00:07:16;;;;;;;13.25;9.48;;;;;;;0.35;78.88;100587.34;1733423;81;21898;-67
2022/12/27 00:09:43;;;;;;;11.85;9.40;;;;;;;0.36;78.82;100577.80;1727542;82;20988;-67
2022/12/27 00:12:10;;;;;;;12.05;10.40;;;;;;;0.38;78.78;100580.73;1732654;81;21043;-68
2022/12/27 00:14:36;;;;;;;13.25;10.45;;;;;;;0.39;78.72;100584.22;1734201;81;21009;-68
2022/12/27 00:17:04;;;;;;;10.93;9.15;;;;;;;0.40;78.69;100591.11;1741935;81;20998;-68
2022/12/27 00:19:31;;;;;;;11.08;9.13;;;;;;;0.42;78.64;100592.75;1729694;82;21825;-68
2022/12/27 00:21:58;;;;;;;12.98;9.70;;;;;;;0.43;78.66;100590.54;1743035;81;21146;-68
2022/12/27 00:24:24;;;;;;;10.60;9.33;;;;;;;0.46;78.60;100601.27;1722398;81;20976;-67
2022/12/27 00:26:51;;;;;;;15.93;12.90;;;;;;;0.47;78.57;100598.61;1737748;81;21060;-68
2022/12/27 00:29:19;;;;;;;12.05;9.55;;;;;;;0.47;78.54;100580.42;1754426;80;21003;-68
2022/12/27 00:31:46;;;;;;;11.70;9.60;;;;;;;0.50;78.55;100571.70;1744294;81;22013;-68
2022/12/27 00:34:12;;;;;;;12.73;9.78;;;;;;;0.50;78.52;100554.80;1749623;81;21003;-67
2022/12/27 00:36:39;;;;;;;13.03;10.10;;;;;;;0.50;78.51;100546.55;1750063;80;21030;-68
2022/12/27 00:39:05;;;;;;;12.23;10.13;;;;;;;0.50;78.50;100550.45;1743837;81;20995;-68
2022/12/27 00:41:32;;;;;;;12.75;9.43;;;;;;;0.49;78.50;100540.97;1730978;81;21016;-68
2022/12/27 00:43:59;;;;;;;11.35;9.58;;;;;;;0.50;78.53;100532.27;1744095;82;21896;-68
2022/12/27 00:46:25;;;;;;;11.43;9.33;;;;;;;0.50;78.57;100523.17;1730984;82;20995;-67
2022/12/27 00:48:52;;;;;;;12.07;9.38;;;;;;;0.50;78.61;100519.72;1730076;81;21078;-69
2022/12/27 00:51:21;;;;;;;11.43;9.78;;;;;;;0.49;78.66;100499.39;1716756;82;20980;-68
2022/12/27 00:53:49;;;;;;;13.15;10.23;;;;;;;0.51;78.73;100503.22;1731023;82;20965;-67
2022/12/27 00:56:22;;;;;;;13.20;11.05;;;;;;;0.51;78.79;100501.92;1744500;82;21832;-66
2022/12/27 00:58:57;;;;;;;12.47;10.75;;;;;;;0.51;78.87;100504.52;1726598;81;21047;-67
2022/12/27 01:01:25;;;;;;;13.55;10.40;;;;;;;0.51;78.95;100507.13;1736489;80;21415;-66
2022/12/27 01:03:52;;;;;;;12.65;10.30;;;;;;;0.51;79.05;100500.63;1744430;81;21495;-68
2022/12/27 01:06:21;;;;;;;11.97;9.85;;;;;;;0.52;79.14;100495.82;1723466;83;20887;-68
2022/12/27 01:08:48;;;;;;;9.88;8.18;;;;;;;0.53;79.20;100501.41;1735144;81;21951;-67
2022/12/27 01:11:16;;;;;;;10.18;7.72;;;;;;;0.56;79.25;100498.23;1750123;81;21004;-67
2022/12/27 01:13:43;;;;;;;10.75;7.35;;;;;;;0.56;79.30;100480.50;1740695;81;21062;-68
2022/12/27 01:16:17;;;;;;;9.78;7.53;;;;;;;0.57;79.36;100477.84;1755080;80;21019;-67
2022/12/27 01:18:43;;;;;;;;;;;;;;;0.60;79.39;100465.66;1732523;82;21435;-67
2022/12/27 01:21:12;;;;;;;8.40;6.30;;;;;;;0.61;79.45;100456.95;1738216;81;22837;-68
2022/12/27 01:23:38;;;;;;;8.15;6.47;;;;;;;0.59;79.51;100451.82;1739016;81;20929;-68
2022/12/27 01:26:08;;;;;;;7.33;6.40;;;;;;;0.59;79.54;100457.02;1740913;80;21150;-69
2022/12/27 01:28:34;;;;;;;8.00;6.40;;;;;;;0.60;79.57;100466.50;1762863;80;21462;-68
2022/12/27 01:31:17;;;;;;;6.85;5.30;;;;;;;0.61;79.60;100462.16;1753550;81;21545;-67
2022/12/27 01:33:44;;;;;;;7.67;5.85;;;;;;;0.63;79.63;100453.84;1748774;81;21990;-67
2022/12/27 01:36:20;;;;;;;8.50;6.40;;;;;;;0.62;79.69;100447.80;1755129;80;21003;-68
2022/12/27 01:38:47;;;;;;;8.15;6.05;;;;;;;0.64;79.73;100449.03;1733592;80;20982;-67
2022/12/27 01:44:42;;;;;;;7.78;5.60;;;;;;;0.64;79.83;100449.03;1733812;80;21051;-67
2022/12/27 01:47:40;;;;;;;7.65;4.83;;;;;;;0.65;79.84;100443.77;1733257;80;21795;-67
2022/12/27 01:50:15;;;;;;;7.72;4.78;;;;;;;0.65;79.91;100447.67;1746495;82;20961;-68
2022/12/27 01:52:53;;;;;;;6.95;4.90;;;;;;;0.66;79.97;100443.31;1748345;82;20992;-68
2022/12/27 01:55:34;;;;;;;7.90;4.97;;;;;;;0.67;80.01;100433.31;1742911;82;21021;-68
2022/12/27 01:58:10;;;;;;;7.87;5.35;;;;;;;0.67;80.04;100435.45;1740349;80;21020;-68
2022/12/27 02:00:38;;;;;;;7.05;5.30;;;;;;;0.69;80.04;100437.57;1734610;81;21767;-68
2022/12/27 02:03:05;;;;;;;7.35;4.90;;;;;;;0.71;80.07;100434.91;1737356;82;21499;-67
2022/12/27 02:05:32;;;;;;;7.10;4.92;;;;;;;0.71;80.07;100427.95;1723410;82;21025;-67
2022/12/27 02:08:33;;;;;;;7.58;5.28;;;;;;;0.73;80.10;100430.49;1735177;81;21463;-67
2022/12/27 02:11:00;;;;;;;7.37;5.42;;;;;;;0.74;80.09;100420.03;1723465;82;20964;-67
2022/12/27 02:13:27;;;;;;;8.20;5.87;;;;;;;0.75;80.12;100411.32;1740815;82;21817;-68
2022/12/27 02:15:54;;;;;;;8.30;5.47;;;;;;;0.75;80.15;100410.48;1712981;81;21011;-68
2022/12/27 02:18:20;;;;;;;8.98;5.72;;;;;;;0.74;80.17;100409.63;1734551;80;21099;-68
2022/12/27 02:21:04;;;;;;;9.18;5.80;;;;;;;0.74;80.20;100414.83;1740664;80;20999;-67
2022/12/27 02:24:02;;;;;;;8.55;6.00;;;;;;;0.75;80.26;100413.92;1729972;80;21087;-67
2022/12/27 02:26:46;;;;;;;8.33;5.53;;;;;;;0.76;80.33;100413.47;1739699;80;21946;-66
2022/12/27 02:29:31;;;;;;;10.15;6.83;;;;;;;0.75;80.41;100407.88;1736374;80;21014;-68
2022/12/27 02:32:18;;;;;;;9.48;6.37;;;;;;;0.74;80.47;100400.98;1745479;80;20995;-68
2022/12/27 02:35:17;;;;;;;10.68;6.50;;;;;;;0.74;80.57;100400.98;1754805;80;21517;-68
2022/12/27 02:37:53;;;;;;;10.95;7.10;;;;;;;0.72;80.65;100399.75;1754344;80;21016;-67
2022/12/27 02:55:28;;;;;;;15.93;9.60;;;;;;;0.71;81.23;100395.46;1728936;82;21963;-67
2022/12/27 02:58:15;;;;;;;14.13;9.35;;;;;;;0.70;81.30;100396.37;1739459;81;21201;-68
2022/12/27 03:04:14;;;;;;;15.15;9.70;;;;;;;0.70;81.49;100402.02;1737678;81;21067;-68
2022/12/27 03:07:10;;;;;;;15.53;9.65;;;;;;;0.70;81.56;100394.22;1733984;82;21039;-68
2022/12/27 03:16:20;;;;;;;15.93;9.55;;;;;;;0.67;81.85;100367.88;1631222;85;21104;-68
2022/12/27 03:19:06;;;;;;;16.40;9.98;;;;;;;0.66;81.96;100361.44;1723610;81;21047;-67
2022/12/27 03:27:16;;;;;;;16.02;10.28;;;;;;;0.67;82.22;100353.58;1745188;80;20993;-67
2022/12/27 03:35:18;;;;;;;18.52;11.05;;;;;;;0.65;82.45;100326.80;1649828;83;20965;-68
2022/12/27 03:38:02;;;;;;;19.00;10.50;;;;;;;0.67;82.51;100323.69;1737795;80;21876;-68
2022/12/27 03:43:33;;;;;;;17.10;10.18;;;;;;;0.66;82.70;100310.30;1732586;80;21494;-67
2022/12/27 03:46:34;;;;;;;18.65;11.45;;;;;;;0.66;82.78;100306.40;1734991;80;21485;-67
2022/12/27 03:49:26;;;;;;;17.23;10.38;;;;;;;0.66;82.88;100302.95;1748690;80;21047;-68
2022/12/27 03:52:08;;;;;;;18.60;10.85;;;;;;;0.66;82.98;100299.05;1723137;80;21958;-67
2022/12/27 03:54:38;;;;;;;14.70;9.50;;;;;;;0.67;83.04;100283.84;1769408;81;21007;-68
2022/12/27 03:57:16;;;;;;;17.30;10.43;;;;;;;0.68;83.13;100288.17;1746217;80;21439;-67
2022/12/27 03:59:42;;;;;;;15.18;9.70;;;;;;;0.68;83.21;100285.11;1720874;81;21762;-67
2022/12/27 04:02:08;;;;;;;16.70;10.55;;;;;;;0.69;83.29;100280.77;1753261;80;21379;-68
2022/12/27 04:04:35;;;;;;;16.60;10.10;;;;;;;0.70;83.38;100279.84;1747082;80;22803;-67
2022/12/27 04:07:03;;;;;;;17.12;10.43;;;;;;;0.71;83.46;100278.94;1750743;80;21459;-68
2022/12/27 04:37:02;;;;;;;13.03;8.83;;;;;;;0.82;84.37;100237.74;1746203;80;21011;-67
2022/12/27 04:39:29;;;;;;;13.45;8.55;;;;;;;0.82;84.42;100235.98;1736247;81;20965;-67
2022/12/27 04:56:02;;;;;;;13.65;8.40;;;;;;;0.89;84.83;100218.84;1750856;80;21089;-68
2022/12/27 04:58:28;;;;;;;13.08;7.87;;;;;;;0.90;84.92;100220.08;1735897;82;21828;-68
2022/12/27 05:03:46;;;;;;;12.90;7.42;;;;;;;0.93;85.01;100217.80;1723870;81;21042;-67
2022/12/27 05:06:12;;;;;;;12.68;7.70;;;;;;;0.94;85.06;100215.58;1734263;80;21013;-67
2022/12/27 05:14:13;;;;;;;12.23;7.45;;;;;;;0.96;85.14;100209.39;1730334;81;20968;-69
2022/12/27 05:16:41;;;;;;;10.98;7.00;;;;;;;0.97;85.16;100206.37;1746191;80;21019;-66
2022/12/27 05:19:10;;;;;;;12.18;7.55;;;;;;;0.95;85.17;100198.61;1743007;81;20975;-66
2022/12/27 05:25:33;;;;;;;10.43;6.55;;;;;;;0.97;85.25;100197.27;1744157;80;20984;-67
2022/12/27 05:26:55;;;;;;;9.83;6.67;;;;;;;0.97;85.33;100186.87;1736159;81;21446;-68
2022/12/27 05:29:21;;;;;;;10.85;6.53;;;;;;;0.98;85.37;100198.95;1750171;80;21011;-68
2022/12/27 05:31:48;;;;;;;9.93;6.60;;;;;;;0.98;85.38;100192.45;1739225;81;20972;-67
2022/12/27 05:34:15;;;;;;;12.85;6.92;;;;;;;1.00;85.42;100190.63;1755828;80;21031;-67
2022/12/27 05:36:41;;;;;;;12.18;6.55;;;;;;;1.00;85.44;100194.06;1757181;81;21526;-66
2022/12/27 05:39:08;;;;;;;10.75;6.65;;;;;;;1.02;85.46;100183.59;1745235;80;20937;-67
2022/12/27 05:41:35;;;;;;;10.10;6.20;;;;;;;1.03;85.51;100178.78;1736504;80;21173;-67
2022/12/27 05:44:02;;;;;;;8.88;6.37;;;;;;;1.03;85.52;100180.08;1745629;81;21032;-68
2022/12/27 05:46:29;;;;;;;9.53;6.28;;;;;;;1.04;85.57;100182.61;1728565;80;21129;-68
2022/12/27 05:48:55;;;;;;;9.90;6.40;;;;;;;1.05;85.60;100182.15;1768465;80;21981;-67
2022/12/27 05:51:22;;;;;;;11.15;6.20;;;;;;;1.05;85.63;100179.09;1770832;79;20996;-68
2022/12/27 05:53:50;;;;;;;10.93;5.62;;;;;;;1.07;85.64;100179.05;1726306;80;20965;-67
2022/12/27 05:56:19;;;;;;;9.58;6.50;;;;;;;1.08;85.65;100175.53;1728393;80;20968;-67
2022/12/27 05:58:46;;;;;;;8.68;5.72;;;;;;;1.08;85.67;100171.18;1743525;80;20969;-68
2022/12/27 06:01:16;;;;;;;9.68;6.33;;;;;;;1.09;85.70;100167.66;1748614;80;21826;-67
2022/12/27 06:03:43;;;;;;;9.95;5.85;;;;;;;1.11;85.79;100166.29;1747608;80;21000;-67
2022/12/27 06:06:09;;;;;;;8.80;5.90;;;;;;;1.12;85.80;100167.52;1764118;80;21051;-68
2022/12/27 06:08:36;;;;;;;8.90;6.22;;;;;;;1.14;85.80;100172.64;1752659;80;21511;-69
2022/12/27 06:11:17;;;;;;;8.45;6.20;;;;;;;1.13;85.81;100156.20;1749151;80;21024;-68
2022/12/27 06:13:52;;;;;;;9.23;5.65;;;;;;;1.13;85.85;100163.16;1732237;81;21915;-67
2022/12/27 06:16:19;;;;;;;9.55;5.90;;;;;;;1.14;85.89;100166.14;1752694;80;21015;-68
2022/12/27 06:18:48;;;;;;;8.48;5.70;;;;;;;1.14;85.90;100165.69;1759813;79;20957;-67
2022/12/27 06:21:18;;;;;;;8.65;5.50;;;;;;;1.15;85.93;100158.73;1742562;80;21039;-67
2022/12/27 06:23:45;;;;;;;8.85;6.22;;;;;;;1.15;85.94;100162.17;1743109;80;21058;-68
2022/12/27 06:26:21;;;;;;;9.43;6.30;;;;;;;1.15;85.98;100155.67;1752839;80;21467;-67
2022/12/27 06:28:48;;;;;;;9.03;6.10;;;;;;;1.18;85.99;100156.02;1745103;80;21019;-69
2022/12/27 06:31:18;;;;;;;9.03;6.10;;;;;;;1.19;86.03;100155.09;1750094;79;20957;-68
2022/12/27 06:33:47;;;;;;;8.48;6.20;;;;;;;1.20;86.04;100150.28;1751363;80;21016;-67
2022/12/27 06:36:15;;;;;;;9.10;6.15;;;;;;;1.21;86.05;100146.76;1710406;80;21430;-68
2022/12/27 06:38:42;;;;;;;7.85;5.67;;;;;;;1.23;86.05;100142.33;1747349;81;21794;-67
2022/12/27 06:41:11;;;;;;;7.55;5.90;;;;;;;1.24;86.11;100137.97;1757585;80;21539;-67
2022/12/27 06:43:38;;;;;;;7.55;5.47;;;;;;;1.25;86.13;100135.75;1752449;80;20939;-68
2022/12/27 06:46:08;;;;;;;7.95;5.60;;;;;;;1.26;86.19;100146.11;1735079;80;22498;-68
2022/12/27 06:48:38;;;;;;;8.23;5.35;;;;;;;1.28;86.26;100141.68;1723161;80;21016;-66
2022/12/27 06:51:06;;;;;;;7.33;5.60;;;;;;;1.29;86.29;100130.36;1741236;81;22691;-68
2022/12/27 06:53:35;;;;;;;7.60;5.60;;;;;;;1.30;86.33;100122.09;1753086;81;20979;-68
2022/12/27 06:56:06;;;;;;;8.55;5.40;;;;;;;1.29;86.35;100124.31;1749607;81;21104;-68
2022/12/27 06:58:33;;;;;;;6.80;5.50;;;;;;;1.31;86.36;100115.97;1757707;80;21008;-68
2022/12/27 07:01:18;;;;;;;7.00;5.40;;;;;;;1.30;86.42;100126.84;1742164;80;21596;-66
2022/12/27 07:03:54;;;;;;;8.18;5.62;;;;;;;1.33;86.47;100131.05;1730246;80;21824;-68
2022/12/27 07:06:22;;;;;;;7.58;5.20;;;;;;;1.34;86.50;100117.12;1757641;80;21034;-67
2022/12/27 07:08:49;;;;;;;6.65;5.45;;;;;;;1.36;86.53;100120.06;1732155;81;20965;-68
2022/12/27 07:11:17;;;;;;;9.75;5.62;;;;;;;1.36;86.57;100123.97;1743675;80;21036;-67
2022/12/27 07:13:47;;;;;;;7.58;5.70;;;;;;;1.38;86.60;100125.20;1733335;81;21034;-70
2022/12/27 07:16:17;;;;;;;7.22;5.58;;;;;;;1.40;86.64;100132.01;1736050;81;23012;-66
2022/12/27 07:18:47;;;;;;;7.28;5.17;;;;;;;1.41;86.63;100134.16;1769015;80;20975;-67
2022/12/27 07:21:17;;;;;;;7.20;5.50;;;;;;;1.41;86.63;100134.16;1748459;80;21726;-68
2022/12/27 07:23:46;;;;;;;7.97;5.67;;;;;;;1.41;86.64;100131.09;1756020;80;20975;-67
2022/12/27 07:26:20;;;;;;;8.58;5.72;;;;;;;1.42;86.66;100131.94;1742387;80;21008;-68
2022/12/27 07:28:47;;;;;;;7.28;5.67;;;;;;;1.43;86.69;100123.21;1745239;80;21879;-68
2022/12/27 07:31:19;;;;;;;7.58;5.62;;;;;;;1.42;86.70;100119.77;1711003;81;21007;-69
2022/12/27 07:33:45;;;;;;;7.83;5.83;;;;;;;1.43;86.74;100110.20;1758112;80;21086;-70
2022/12/27 07:36:15;;;;;;;7.90;6.10;;;;;;;1.44;86.74;100114.48;1784063;80;20999;-68
2022/12/27 07:38:44;;;;;;;8.18;6.30;;;;;;;1.46;86.80;100111.84;1756695;80;21011;-67
2022/12/27 07:41:12;;;;;;;8.05;6.42;;;;;;;1.47;86.81;100111.77;1767455;80;22558;-68
2022/12/27 07:43:38;;;;;;;8.68;6.87;;;;;;;1.47;86.80;100123.47;1748245;80;20943;-68
2022/12/27 07:46:14;;;;;;;9.23;7.22;;;;;;;1.49;86.84;100128.61;1757719;80;21022;-71
2022/12/27 07:48:41;;;;;;;8.70;7.00;;;;;;;1.49;86.87;100119.03;1769286;80;21109;-68
2022/12/27 07:51:08;;;;;;;8.35;7.08;;;;;;;1.51;86.90;100116.36;1754636;80;21042;-69
2022/12/27 07:53:34;;;;;;;10.08;7.75;;;;;;;1.52;86.91;100121.48;1764946;80;21803;-70
2022/12/27 07:56:10;;;;;;;8.98;7.28;;;;;;;1.54;86.92;100113.61;1743282;81;21071;-70
2022/12/27 07:58:39;;;;;;;11.83;8.68;;;;;;;1.55;86.97;100099.70;1751062;81;20999;-68
2022/12/27 08:01:08;;;;;;;9.60;7.83;;;;;;;1.57;86.98;100087.45;1736331;80;20961;-69
2022/12/27 08:03:35;;;;;;;10.03;7.72;;;;;;;1.59;87.05;100092.13;1745322;80;21008;-68
2022/12/27 08:06:03;;;;;;;9.60;7.97;;;;;;;1.62;87.08;100101.08;1736660;80;21871;-69
2022/12/27 08:08:40;;;;;;;11.80;8.70;;;;;;;1.64;87.12;100102.72;1761541;80;21019;-70
2022/12/27 08:11:07;;;;;;;9.98;8.30;;;;;;;1.66;87.15;100112.59;1761908;80;21082;-70
2022/12/27 08:13:35;;;;;;;10.53;8.60;;;;;;;1.69;87.16;100102.48;1759404;80;21104;-69
2022/12/27 08:16:01;;;;;;;10.72;8.40;;;;;;;1.71;87.17;100099.34;1762688;80;21010;-69
2022/12/27 08:18:28;;;;;;;11.20;9.20;;;;;;;1.72;87.20;100097.13;1758620;80;21790;-70
2022/12/27 08:20:55;;;;;;;10.23;9.05;;;;;;;1.73;87.22;100091.84;1748350;80;20983;-69
2022/12/27 08:23:21;;;;;;;10.80;9.00;;;;;;;1.73;87.22;100082.73;1756049;80;21025;-70
2022/12/27 08:25:48;;;;;;;11.08;9.40;;;;;;;1.76;87.25;100075.71;1760513;80;21069;-69
2022/12/27 08:28:16;;;;;;;11.93;9.30;;;;;;;1.77;87.25;100062.61;1767116;80;20984;-69
2022/12/27 08:30:44;;;;;;;10.45;8.23;;;;;;;1.78;87.29;100055.19;1756922;80;21838;-69
2022/12/27 08:33:10;;;;;;;9.33;8.20;;;;;;;1.82;87.35;100054.11;1756168;80;22023;-69
2022/12/27 08:35:43;;;;;;;9.83;8.75;;;;;;;1.86;87.42;100047.01;1751615;80;20953;-69
2022/12/27 08:38:10;;;;;;;11.18;9.53;;;;;;;1.90;87.44;100048.53;1734912;80;20954;-69
2022/12/27 08:40:42;;;;;;;11.10;9.15;;;;;;;1.94;87.50;100048.78;1732616;81;21051;-69
2022/12/27 08:43:08;;;;;;;11.97;9.60;;;;;;;1.96;87.51;100051.69;1740496;81;21871;-68
2022/12/27 08:45:36;;;;;;;13.35;11.08;;;;;;;2.00;87.52;100049.77;1735539;80;21024;-69
2022/12/27 08:48:03;;;;;;;12.35;10.03;;;;;;;2.03;87.56;100039.22;1742446;81;21047;-69
2022/12/27 08:50:30;;;;;;;11.28;9.95;;;;;;;2.07;87.57;100037.28;1741759;81;21012;-68
2022/12/27 08:53:00;;;;;;;12.55;9.65;;;;;;;2.09;87.58;100042.80;1757766;81;20947;-67
2022/12/27 08:55:27;;;;;;;13.13;9.83;;;;;;;2.12;87.63;100036.13;1727638;81;21993;-68
2022/12/27 08:58:00;;;;;;;12.63;10.25;;;;;;;2.16;87.65;100044.65;1764576;81;20987;-68
2022/12/27 09:00:27;;;;;;;11.95;10.18;;;;;;;2.18;87.65;100048.02;1758033;81;21127;-69
2022/12/27 09:02:53;;;;;;;10.98;9.50;;;;;;;2.19;87.66;100041.41;1753792;81;20991;-68
2022/12/27 09:05:21;;;;;;;11.08;8.68;;;;;;;2.21;87.65;100043.94;1763194;81;20979;-68
2022/12/27 09:07:48;;;;;;;10.72;9.03;;;;;;;2.23;87.68;100039.06;1766650;81;21811;-68
2022/12/27 09:10:15;;;;;;;10.30;8.60;;;;;;;2.25;87.68;100038.52;1766005;81;21006;-68
2022/12/27 09:12:42;;;;;;;10.70;9.33;;;;;;;2.25;87.65;100033.30;1742782;81;21037;-69
2022/12/27 09:15:10;;;;;;;10.78;9.18;;;;;;;2.26;87.63;100025.87;1740713;82;20981;-67
2022/12/27 09:17:37;;;;;;;9.68;8.58;;;;;;;2.26;87.63;100024.56;1718643;83;21395;-69
2022/12/27 09:20:06;;;;;;;9.65;8.68;;;;;;;2.27;87.63;100022.80;1723823;82;21835;-71
2022/12/27 09:22:34;;;;;;;11.97;8.98;;;;;;;2.28;87.60;100020.56;1718464;83;20988;-71
2022/12/27 09:25:01;;;;;;;9.58;8.55;;;;;;;2.28;87.61;100008.38;1731649;82;20996;-69
2022/12/27 09:27:27;;;;;;;9.25;8.08;;;;;;;2.31;87.65;100004.77;1743673;82;21422;-69
2022/12/27 09:29:54;;;;;;;9.18;7.58;;;;;;;2.34;87.70;100010.31;1719480;82;21055;-69
2022/12/27 09:32:22;;;;;;;9.35;8.18;;;;;;;2.37;87.73;100007.53;1730401;82;21954;-68
2022/12/27 09:34:49;;;;;;;9.73;8.40;;;;;;;2.42;87.80;99997.73;1718482;83;21312;-68
2022/12/27 09:37:15;;;;;;;10.35;8.43;;;;;;;2.47;87.84;99999.16;1752727;80;20983;-68
2022/12/27 09:39:42;;;;;;;9.88;8.85;;;;;;;2.49;87.85;99990.78;1748358;80;21016;-69
2022/12/27 09:42:37;;;;;;;11.33;10.13;;;;;;;2.51;87.86;99988.97;1750401;82;21463;-68
2022/12/27 09:45:18;;;;;;;12.33;10.53;;;;;;;2.54;87.88;99986.19;1729913;81;21849;-69
2022/12/27 09:47:59;;;;;;;10.72;9.30;;;;;;;2.59;87.97;99984.63;1731778;81;20991;-68
2022/12/27 09:50:36;;;;;;;11.70;9.95;;;;;;;2.64;88.02;99980.03;1756930;81;20983;-68
2022/12/27 09:53:12;;;;;;;11.73;10.53;;;;;;;2.68;88.03;99979.39;1759068;81;20960;-68
2022/12/27 09:55:50;;;;;;;12.13;10.70;;;;;;;2.70;88.03;99970.59;1751905;81;21018;-68
2022/12/27 09:58:37;;;;;;;13.18;10.88;;;;;;;2.74;88.08;99964.73;1733580;82;21948;-67
2022/12/27 10:01:26;;;;;;;11.57;10.03;;;;;;;2.78;88.10;99965.77;1742021;80;21012;-67
2022/12/27 10:03:53;;;;;;;14.73;11.40;;;;;;;2.83;88.15;99961.64;1739130;80;21546;-67
2022/12/27 10:06:49;;;;;;;13.38;11.15;;;;;;;2.85;88.14;99960.62;1725111;82;21036;-67
2022/12/27 10:09:39;;;;;;;13.35;11.95;;;;;;;2.87;88.13;99952.24;1722156;82;22270;-68
2022/12/27 10:12:27;;;;;;;13.40;11.48;;;;;;;2.92;88.14;99961.59;1731049;80;21927;-67
2022/12/27 10:15:22;;;;;;;13.25;11.85;;;;;;;2.95;88.10;99957.52;1725854;80;21071;-68
2022/12/27 10:18:14;;;;;;;13.15;11.50;;;;;;;2.97;88.13;99951.27;1734852;82;21184;-68
2022/12/27 10:21:05;;;;;;;13.20;11.60;;;;;;;3.00;88.14;99945.07;1727312;82;21079;-66
2022/12/27 10:23:33;;;;;;;13.93;11.70;;;;;;;3.04;88.16;99934.83;1740718;81;21051;-68
2022/12/27 10:26:05;;;;;;;12.93;11.53;;;;;;;3.06;88.16;99939.03;1740233;81;22436;-66
2022/12/27 10:28:43;;;;;;;13.28;11.33;;;;;;;3.10;88.17;99929.28;1731296;80;21554;-68
2022/12/27 10:31:18;;;;;;;14.20;11.93;;;;;;;3.16;88.31;99925.01;1735652;81;21937;-66
2022/12/27 10:33:47;;;;;;;15.78;14.07;;;;;;;3.23;88.32;99922.91;1738748;81;21473;-69
2022/12/27 10:36:23;;;;;;;14.43;12.37;;;;;;;3.27;88.32;99920.48;1741781;82;21575;-68
2022/12/27 10:38:50;;;;;;;13.60;11.90;;;;;;;3.29;88.32;99926.02;1723260;82;21907;-68
2022/12/27 10:41:32;;;;;;;16.67;13.60;;;;;;;3.34;88.34;99924.44;1761153;80;21057;-67
2022/12/27 10:43:59;;;;;;;16.95;13.85;;;;;;;3.36;88.28;99926.49;1753197;80;20983;-70
2022/12/27 10:46:28;;;;;;;20.57;16.30;;;;;;;3.38;88.32;99935.94;1762498;80;21073;-70
2022/12/27 10:49:02;;;;;;;18.10;15.03;;;;;;;3.39;88.24;99931.09;1757683;81;21058;-67
2022/12/27 10:51:37;;;;;;;18.95;14.95;;;;;;;3.38;88.21;99924.20;1753530;80;22712;-68
2022/12/27 10:54:13;;;;;;;18.75;16.75;;;;;;;3.39;88.18;99918.05;1755149;81;21035;-68
2022/12/27 10:56:41;;;;;;;17.90;14.85;;;;;;;3.42;88.15;99923.08;1738891;81;21497;-71
2022/12/27 10:59:25;;;;;;;16.30;14.58;;;;;;;3.43;88.16;99924.76;1766819;81;21135;-71
2022/12/27 11:02:12;;;;;;;18.27;14.53;;;;;;;3.45;88.15;99925.50;1748683;80;21034;-68
2022/12/27 11:04:44;;;;;;;16.48;14.10;;;;;;;3.47;88.14;99918.88;1760276;80;21942;-69
2022/12/27 11:07:17;;;;;;;19.12;15.78;;;;;;;3.48;88.14;99919.29;1729910;81;20971;-69
2022/12/27 11:09:45;;;;;;;21.73;16.15;;;;;;;3.49;88.16;99915.75;1752687;81;21063;-68
2022/12/27 11:12:31;;;;;;;21.33;16.42;;;;;;;3.56;88.23;99921.44;1738821;81;21584;-68
2022/12/27 11:15:14;;;;;;;19.42;15.38;;;;;;;3.60;88.29;99922.49;1747706;81;21046;-68
2022/12/27 11:17:44;;;;;;;21.68;17.25;;;;;;;3.65;88.32;99915.22;1751430;81;21876;-68
2022/12/27 11:20:27;;;;;;;19.55;15.80;;;;;;;3.69;88.32;99918.51;1733228;81;21904;-65
2022/12/27 11:23:11;;;;;;;23.05;17.57;;;;;;;3.71;88.31;99903.12;1752358;80;21026;-67
2022/12/27 11:25:57;;;;;;;19.37;16.32;;;;;;;3.74;88.32;99910.77;1752599;80;21114;-67
2022/12/27 11:28:41;;;;;;;21.05;17.45;;;;;;;3.77;88.32;99917.60;1760973;80;21046;-67
2022/12/27 11:31:14;;;;;;;23.47;18.00;;;;;;;3.80;88.30;99922.63;1734097;80;21771;-66
2022/12/27 11:33:51;;;;;;;22.73;18.80;;;;;;;3.83;88.30;99920.30;1728490;82;21396;-66
2022/12/27 11:36:39;;;;;;;23.80;18.77;;;;;;;3.86;88.34;99910.97;1725709;80;21105;-66
2022/12/27 11:39:07;;;;;;;24.00;18.12;;;;;;;3.92;88.39;99915.84;1744355;81;20968;-68
2022/12/27 11:41:44;;;;;;;21.35;17.15;;;;;;;3.94;88.39;99916.58;1737261;81;21034;-68
2022/12/27 11:44:21;;;;;;;20.50;17.07;;;;;;;3.97;88.38;99922.95;1742526;80;22525;-68
2022/12/27 11:47:24;;;;;;;22.77;17.70;;;;;;;3.95;88.25;99910.42;1738497;81;21070;-68
2022/12/27 11:49:58;;;;;;;23.25;17.90;;;;;;;3.93;88.15;99901.84;1761111;81;21346;-68
2022/12/27 11:52:52;;;;;;;21.42;17.60;;;;;;;3.90;88.09;99904.18;1760666;81;21035;-68
2022/12/27 11:55:47;;;;;;;23.60;17.50;;;;;;;3.89;88.09;99913.42;1732836;81;21098;-67
2022/12/27 11:58:38;;;;;;;24.05;18.25;;;;;;;3.89;88.07;99914.72;1730799;82;21813;-67
2022/12/27 12:01:35;;;;;;;25.50;20.00;;;;;;;3.90;88.06;99922.47;1734338;80;21132;-69
2022/12/27 12:04:31;;;;;;;24.27;19.48;;;;;;;3.91;88.06;99924.14;1730294;81;21042;-69
2022/12/27 12:07:28;;;;;;;24.18;18.75;;;;;;;3.92;88.08;99924.98;1730340;82;21034;-69
2022/12/27 12:10:25;;;;;;;27.52;19.62;;;;;;;3.94;88.11;99928.34;1716801;82;21544;-68
2022/12/27 12:13:04;;;;;;;31.10;22.67;;;;;;;3.97;88.12;99931.63;1730732;82;21860;-68
2022/12/27 12:16:01;;;;;;;29.87;21.90;;;;;;;3.99;88.11;99929.77;1669228;82;21027;-68
2022/12/27 12:18:54;;;;;;;25.72;20.23;;;;;;;4.01;88.13;99929.20;1731932;80;21043;-69
2022/12/27 12:21:57;;;;;;;29.60;22.27;;;;;;;4.03;88.14;99915.57;1730990;81;21053;-67
2022/12/27 12:24:38;;;;;;;29.37;22.27;;;;;;;4.06;88.16;99917.66;1735460;81;21125;-68
2022/12/27 12:27:43;;;;;;;30.08;22.40;;;;;;;4.07;88.14;99924.55;1759782;81;21825;-68
2022/12/27 12:30:54;;;;;;;32.20;23.20;;;;;;;4.08;88.13;99919.23;1704724;83;21034;-67
2022/12/27 12:33:33;;;;;;;33.73;24.80;;;;;;;4.11;88.11;99918.20;1736432;80;21074;-67
2022/12/27 12:36:41;;;;;;;35.63;25.27;;;;;;;4.13;88.12;99918.94;1726429;82;21068;-68
2022/12/27 12:39:31;;;;;;;31.82;23.07;;;;;;;4.15;88.11;99911.41;1741149;82;21532;-68
2022/12/27 12:42:24;;;;;;;32.98;23.85;;;;;;;4.18;88.12;99908.59;1771254;80;21900;-68
2022/12/27 12:44:56;;;;;;;34.35;25.10;;;;;;;4.20;88.09;99906.73;1766611;80;21489;-68
2022/12/27 12:47:57;;;;;;;36.40;25.82;;;;;;;4.22;88.12;99904.85;1758374;81;21030;-68
2022/12/27 12:51:12;;;;;;;37.17;26.80;;;;;;;4.25;88.12;99907.30;1759030;80;21061;-67
2022/12/27 12:54:05;;;;;;;32.40;23.38;;;;;;;4.27;88.10;99916.35;1710325;82;21594;-68
2022/12/27 12:57:22;;;;;;;37.45;30.00;;;;;;;4.30;88.13;99928.76;1709676;83;22701;-68
2022/12/27 13:00:20;;;;;;;37.25;28.42;;;;;;;4.34;88.18;99925.48;1717403;82;21561;-68
2022/12/27 13:03:09;;;;;;;37.42;28.20;;;;;;;4.38;88.26;99930.91;1737509;82;21059;-65
2022/12/27 13:05:51;;;;;;;36.35;28.00;;;;;;;4.41;88.28;99938.56;1725863;83;21034;-68
2022/12/27 13:08:43;;;;;;;31.30;24.00;;;;;;;4.44;88.30;99936.22;1696675;82;21488;-67
2022/12/27 13:11:46;;;;;;;35.38;26.50;;;;;;;4.47;88.33;99937.36;1738185;82;21551;-69
2022/12/27 13:14:47;;;;;;;29.90;23.38;;;;;;;4.49;88.32;99931.56;1738880;82;21075;-68
2022/12/27 13:17:40;;;;;;;31.95;24.55;;;;;;;4.51;88.33;99937.06;1739045;82;21008;-68
2022/12/27 13:20:39;;;;;;;34.03;25.32;;;;;;;4.52;88.34;99930.90;1735710;82;21536;-68
2022/12/27 13:23:33;;;;;;;34.83;24.40;;;;;;;4.54;88.34;99922.52;1725670;83;20999;-67
2022/12/27 13:26:31;;;;;;;30.05;23.83;;;;;;;4.56;88.34;99911.95;1737637;81;21847;-69
2022/12/27 13:29:33;;;;;;;34.43;23.73;;;;;;;4.57;88.35;99917.55;1732986;81;21586;-68
2022/12/27 13:32:08;;;;;;;31.20;22.27;;;;;;;4.58;88.35;99914.84;1744534;81;20988;-68
2022/12/27 13:34:57;;;;;;;34.73;24.80;;;;;;;4.59;88.34;99922.22;1746461;80;21020;-68
2022/12/27 13:37:58;;;;;;;32.53;23.73;;;;;;;4.58;88.35;99929.22;1732998;81;21088;-68
2022/12/27 13:40:50;;;;;;;33.28;24.47;;;;;;;4.59;88.33;99923.05;1717452;81;21934;-68